Time;durP1;ratioP1;P1;durP2;ratioP2;P2;SDS_P1;SDS_P2;PMS_P1;PMS_P2;Temp;Humidity;BMP_temperature;BMP_pressure;BME280_temperature;BME280_humidity;BME280_pressure;Samples;Min_cycle;Max_cycle;Signal;HPM_P1;HPM_P2
2022/05/04 00:00:00;;;;;;;1.13;0.80;;;;;;;22.04;47.46;99209.16;5110419;28;20051;-61
2022/05/04 00:02:25;;;;;;;1.23;0.70;;;;;;;22.04;47.52;99208.34;5110767;28;20040;-61
2022/05/04 00:04:51;;;;;;;1.30;0.80;;;;;;;22.04;47.59;99213.91;5110339;28;20125;-61
2022/05/04 00:07:16;;;;;;;0.90;0.70;;;;;;;22.04;47.24;99213.91;5110440;28;20043;-61
2022/05/04 00:09:42;;;;;;;1.08;0.80;;;;;;;22.02;47.43;99208.75;5110477;28;20046;-61
2022/05/04 00:12:07;;;;;;;1.45;0.90;;;;;;;22.03;47.24;99209.53;5110625;28;20514;-61
2022/05/04 00:14:33;;;;;;;1.38;0.90;;;;;;;22.03;47.26;99207.56;5110580;28;20075;-61
2022/05/04 00:16:59;;;;;;;1.25;0.93;;;;;;;22.02;47.24;99210.72;5110322;28;20039;-61
2022/05/04 00:19:24;;;;;;;1.30;0.93;;;;;;;22.04;47.24;99213.91;5110266;28;20134;-61
2022/05/04 00:21:49;;;;;;;0.95;0.70;;;;;;;22.03;47.16;99203.97;5110261;28;20047;-61
2022/05/04 00:24:19;;;;;;;1.30;0.82;;;;;;;22.03;47.35;99212.31;5110355;28;20035;-61
2022/05/04 00:26:48;;;;;;;1.27;0.70;;;;;;;22.02;47.35;99211.53;5110210;28;20042;-61
2022/05/04 00:29:13;;;;;;;1.02;0.70;;;;;;;22.00;47.31;99208.31;5109191;28;20040;-64
2022/05/04 00:31:39;;;;;;;0.90;0.60;;;;;;;22.01;47.35;99209.13;5110123;28;20036;-64
2022/05/04 00:34:05;;;;;;;0.95;0.73;;;;;;;22.01;47.45;99209.13;5110007;28;20062;-64
2022/05/04 00:36:31;;;;;;;0.98;0.70;;;;;;;21.99;47.30;99209.50;5110186;28;20041;-64
2022/05/04 00:38:57;;;;;;;1.20;0.80;;;;;;;21.99;47.26;99207.50;5109991;28;20139;-64
2022/05/04 00:41:22;;;;;;;0.93;0.80;;;;;;;22.01;47.04;99211.91;5110009;28;20134;-64
2022/05/04 00:43:52;;;;;;;1.10;0.75;;;;;;;21.99;47.32;99204.72;5109730;28;20396;-64
2022/05/04 00:46:18;;;;;;;1.30;0.77;;;;;;;21.98;47.13;99211.50;5109835;28;20035;-64
2022/05/04 00:48:44;;;;;;;1.27;0.80;;;;;;;21.98;47.35;99211.50;5110013;28;20106;-65
2022/05/04 00:51:09;;;;;;;1.17;0.80;;;;;;;21.99;47.04;99212.28;5109714;28;20538;-64
2022/05/04 00:53:35;;;;;;;1.10;0.77;;;;;;;21.97;46.98;99207.13;5109744;28;20051;-64
2022/05/04 00:56:02;;;;;;;1.38;0.73;;;;;;;21.98;47.22;99203.13;5109823;28;20039;-64
2022/05/04 01:01:15;;;;;;;1.10;0.70;;;;;;;21.94;46.94;99202.31;5110146;28;20067;-64
2022/05/04 01:03:40;;;;;;;1.58;0.90;;;;;;;21.97;46.96;99209.91;5091378;28;20112;-64
2022/05/04 01:06:06;;;;;;;1.00;0.80;;;;;;;21.97;47.34;99203.53;5107624;28;20784;-64
2022/05/04 01:08:31;;;;;;;1.00;0.80;;;;;;;21.95;46.94;99203.13;5109695;28;20444;-61
2022/05/04 01:10:57;;;;;;;0.75;0.55;;;;;;;21.95;47.11;99201.13;5109783;28;20524;-62
2022/05/04 01:13:22;;;;;;;0.85;0.70;;;;;;;21.96;46.84;99196.38;5109469;28;20040;-62
2022/05/04 01:15:49;;;;;;;1.23;0.85;;;;;;;21.96;46.91;99208.31;5109337;28;20449;-62
2022/05/04 01:18:15;;;;;;;1.10;0.70;;;;;;;21.97;47.03;99206.31;5109472;28;20499;-61
2022/05/04 01:20:40;;;;;;;0.90;0.70;;;;;;;21.97;47.13;99209.09;5109722;28;20050;-62
2022/05/04 01:23:06;;;;;;;1.23;0.73;;;;;;;21.97;47.03;99209.09;5107393;28;20056;-61
2022/05/04 01:25:31;;;;;;;1.10;0.75;;;;;;;21.98;46.67;99210.69;5109275;28;20054;-65
2022/05/04 01:27:57;;;;;;;1.20;0.80;;;;;;;21.95;46.97;99217.84;5109227;28;20069;-65
2022/05/04 01:30:23;;;;;;;1.08;0.77;;;;;;;21.96;47.31;99213.06;5109331;28;20418;-65
2022/05/04 01:32:48;;;;;;;0.88;0.63;;;;;;;21.95;47.22;99209.50;5109314;28;20050;-61
2022/05/04 01:35:14;;;;;;;0.82;0.60;;;;;;;21.95;46.96;99215.06;5109203;28;20490;-61
2022/05/04 01:37:40;;;;;;;1.20;0.80;;;;;;;21.96;47.42;99213.06;5109067;28;20054;-62
2022/05/04 01:40:06;;;;;;;1.35;0.88;;;;;;;21.97;47.40;99211.88;5109683;28;20567;-65
2022/05/04 01:42:32;;;;;;;1.60;0.77;;;;;;;21.95;47.35;99212.28;5113022;28;20047;-65
2022/05/04 01:44:57;;;;;;;1.23;0.70;;;;;;;21.95;47.45;99212.28;5112654;28;20052;-64
2022/05/04 01:47:23;;;;;;;1.10;0.73;;;;;;;21.94;47.37;99209.88;5112644;28;20048;-65
2022/05/04 01:49:48;;;;;;;1.00;0.70;;;;;;;21.94;47.15;99216.25;5112686;28;20044;-64
2022/05/04 01:52:14;;;;;;;1.50;0.80;;;;;;;21.95;47.39;99215.06;5112586;28;20054;-65
2022/05/04 01:54:39;;;;;;;1.42;0.80;;;;;;;22.21;46.75;99214.03;5112489;28;20109;-64
2022/05/04 01:57:05;;;;;;;1.05;0.80;;;;;;;22.35;46.31;99220.88;5112475;28;20407;-65
2022/05/04 01:59:30;;;;;;;1.00;0.70;;;;;;;22.28;46.69;99218.06;5112541;28;20051;-64
2022/05/04 02:01:56;;;;;;;0.85;0.70;;;;;;;22.18;46.53;99214.84;5112561;28;20051;-65
2022/05/04 02:04:22;;;;;;;0.90;0.70;;;;;;;22.10;46.83;99224.34;5112565;28;20399;-64
2022/05/04 02:06:48;;;;;;;1.05;0.70;;;;;;;22.10;46.76;99217.97;5112281;28;20055;-65
2022/05/04 02:09:14;;;;;;;1.10;0.80;;;;;;;22.06;46.77;99223.47;5112279;28;20510;-64
2022/05/04 02:11:39;;;;;;;1.90;1.00;;;;;;;22.04;46.73;99219.50;5112334;28;20051;-65
2022/05/04 02:14:05;;;;;;;1.20;0.80;;;;;;;22.02;46.74;99219.88;5112241;28;20510;-65
2022/05/04 02:16:31;;;;;;;1.00;0.75;;;;;;;22.01;46.80;99221.06;5112033;28;20054;-65
2022/05/04 02:18:57;;;;;;;1.05;0.85;;;;;;;22.01;46.76;99220.28;5112000;28;20134;-65
2022/05/04 02:21:23;;;;;;;1.05;0.80;;;;;;;21.99;46.76;99218.66;5112044;28;20498;-65
2022/05/04 02:23:48;;;;;;;1.10;0.80;;;;;;;22.01;46.83;99217.50;5112065;28;20051;-65
2022/05/04 02:26:14;;;;;;;1.02;0.73;;;;;;;21.99;46.73;99218.66;5112039;28;20036;-65
2022/05/04 02:28:39;;;;;;;0.88;0.70;;;;;;;21.99;46.98;99213.09;5112036;28;20568;-64
2022/05/04 02:31:05;;;;;;;0.82;0.75;;;;;;;21.96;46.93;99201.94;5111922;28;20388;-65
2022/05/04 02:33:31;;;;;;;1.50;0.90;;;;;;;21.93;47.02;99214.66;5111906;28;20449;-65
2022/05/04 02:38:40;;;;;;;0.80;0.73;;;;;;;21.96;46.94;99211.09;5111984;28;20062;-65
2022/05/04 02:41:06;;;;;;;1.13;0.70;;;;;;;21.93;47.14;99217.44;5112006;28;20407;-64
2022/05/04 02:43:32;;;;;;;1.23;0.82;;;;;;;21.95;47.29;99217.06;5111722;28;20130;-64
2022/05/04 02:46:11;;;;;;;1.00;0.70;;;;;;;21.94;47.37;99221.03;5111824;28;20046;-64
2022/05/04 02:48:36;;;;;;;1.00;0.70;;;;;;;21.94;47.31;99221.81;5091550;28;20079;-65
2022/05/04 02:51:02;;;;;;;1.05;0.80;;;;;;;21.94;47.15;99216.25;5091272;28;20068;-65
2022/05/04 02:53:27;;;;;;;1.00;0.70;;;;;;;21.93;46.97;99209.09;5090493;28;20049;-65
2022/05/04 02:55:52;;;;;;;0.90;0.80;;;;;;;21.93;47.29;99217.44;5091343;28;20579;-64
2022/05/04 02:58:18;;;;;;;0.95;0.68;;;;;;;21.94;47.10;99210.69;5091126;28;20048;-65
2022/05/04 03:00:43;;;;;;;0.90;0.68;;;;;;;21.92;47.30;99212.25;5091156;28;20067;-62
2022/05/04 03:03:10;;;;;;;1.00;0.70;;;;;;;21.93;47.34;99214.66;5090960;28;20819;-61
2022/05/04 03:05:36;;;;;;;1.10;0.70;;;;;;;21.94;46.97;99213.47;5091091;28;20123;-61
2022/05/04 03:08:02;;;;;;;1.08;0.77;;;;;;;21.94;47.29;99207.09;5090869;28;20151;-64
2022/05/04 03:10:27;;;;;;;1.27;0.80;;;;;;;21.93;46.97;99202.69;5090916;28;20048;-64
2022/05/04 03:12:52;;;;;;;1.10;0.80;;;;;;;21.91;47.31;99203.09;5090917;28;20036;-64
2022/05/04 03:15:18;;;;;;;1.00;0.77;;;;;;;21.90;47.17;99204.28;5091095;28;20112;-62
2022/05/04 03:17:43;;;;;;;1.35;0.70;;;;;;;21.90;47.47;99197.91;5090835;28;20097;-61
2022/05/04 03:20:12;;;;;;;1.10;0.70;;;;;;;21.89;47.47;99199.91;5090598;28;20090;-62
2022/05/04 03:22:38;;;;;;;1.13;0.80;;;;;;;21.89;47.10;99197.13;5090533;28;20093;-62
2022/05/04 03:25:08;;;;;;;0.98;0.70;;;;;;;21.87;47.34;99193.94;5090627;28;20047;-62
2022/05/04 03:27:33;;;;;;;1.10;0.73;;;;;;;21.89;47.35;99188.75;5090691;28;20408;-65
2022/05/04 03:29:59;;;;;;;1.55;0.90;;;;;;;21.90;47.52;99193.13;5090755;28;20036;-64
2022/05/04 03:32:24;;;;;;;0.85;0.70;;;;;;;21.90;47.10;99198.72;5090769;28;20047;-64
2022/05/04 03:34:50;;;;;;;0.80;0.70;;;;;;;21.92;47.09;99203.88;5090577;28;20564;-62
2022/05/04 03:37:15;;;;;;;0.95;0.70;;;;;;;21.91;47.13;99205.06;5090453;28;20036;-62
2022/05/04 03:39:41;;;;;;;1.33;0.85;;;;;;;21.91;47.10;99205.06;5090432;28;20063;-62
2022/05/04 03:42:07;;;;;;;0.88;0.70;;;;;;;21.91;47.26;99207.84;5090406;28;20291;-62
2022/05/04 03:44:32;;;;;;;1.02;0.70;;;;;;;21.89;46.98;99211.03;5090557;28;20040;-62
2022/05/04 03:46:58;;;;;;;0.85;0.75;;;;;;;21.89;47.36;99205.47;5090237;28;20093;-62
2022/05/04 03:49:23;;;;;;;1.00;0.70;;;;;;;21.88;47.18;99212.22;5090243;28;20044;-62
2022/05/04 03:51:49;;;;;;;1.00;0.73;;;;;;;21.88;47.04;99200.28;5070408;28;20385;-62
2022/05/04 03:54:15;;;;;;;1.00;0.80;;;;;;;21.87;47.08;99199.50;5090244;28;20043;-62
2022/05/04 03:56:41;;;;;;;1.58;0.88;;;;;;;21.87;46.78;99204.28;5090184;28;20114;-62
2022/05/04 03:59:07;;;;;;;1.85;0.98;;;;;;;21.87;46.79;99205.06;5090230;28;20499;-62
2022/05/04 04:01:33;;;;;;;1.10;0.80;;;;;;;21.89;47.04;99204.66;5069851;28;20055;-62
2022/05/04 04:03:58;;;;;;;1.08;0.80;;;;;;;21.87;46.99;99205.06;5088973;28;20986;-62
2022/05/04 04:06:24;;;;;;;1.10;0.80;;;;;;;21.90;46.65;99209.06;5090104;28;20043;-64
2022/05/04 04:08:53;;;;;;;1.33;0.90;;;;;;;21.88;46.97;99212.22;5090182;28;20044;-64
2022/05/04 04:11:19;;;;;;;1.00;0.70;;;;;;;21.89;46.74;99213.81;5090014;28;20404;-65
2022/05/04 04:13:45;;;;;;;1.33;0.80;;;;;;;21.89;46.97;99216.59;5090036;28;20122;-65
2022/05/04 04:16:10;;;;;;;1.20;0.88;;;;;;;21.89;46.97;99213.81;5090207;28;20419;-65
2022/05/04 04:18:36;;;;;;;0.95;0.70;;;;;;;21.88;46.60;99222.56;5089977;28;20496;-65
2022/05/04 04:23:45;;;;;;;0.90;0.68;;;;;;;21.87;47.01;99221.78;5089149;28;20055;-65
2022/05/04 04:26:11;;;;;;;1.40;0.77;;;;;;;21.89;46.68;99224.16;5089822;28;20044;-65
2022/05/04 04:28:38;;;;;;;1.13;0.80;;;;;;;21.87;46.86;99227.34;5071814;28;20040;-65
2022/05/04 04:31:05;;;;;;;1.33;0.73;;;;;;;21.87;46.92;99227.34;5089671;28;20071;-61
2022/05/04 04:33:30;;;;;;;1.30;0.80;;;;;;;21.89;46.90;99229.72;5089819;28;20045;-62
2022/05/04 04:35:56;;;;;;;1.20;0.80;;;;;;;21.89;46.79;99230.53;5089799;28;20040;-65
2022/05/04 04:38:22;;;;;;;1.20;0.80;;;;;;;21.88;46.66;99228.94;5089710;28;20523;-64
2022/05/04 04:40:48;;;;;;;1.17;0.80;;;;;;;21.87;46.72;99221.78;5089530;28;20067;-65
2022/05/04 04:43:14;;;;;;;0.82;0.70;;;;;;;21.87;46.68;99227.34;5089717;28;20066;-64
2022/05/04 04:45:41;;;;;;;1.00;0.75;;;;;;;21.87;46.66;99230.13;5089578;28;20064;-64
2022/05/04 04:48:06;;;;;;;1.00;0.80;;;;;;;21.89;46.51;99235.31;5089609;28;20559;-65
2022/05/04 04:50:32;;;;;;;0.70;0.60;;;;;;;21.89;46.86;99230.53;5089687;28;20127;-65
2022/05/04 04:52:57;;;;;;;0.80;0.60;;;;;;;21.87;46.83;99232.91;5089598;28;20036;-65
2022/05/04 04:55:23;;;;;;;1.23;0.70;;;;;;;21.90;46.50;99234.09;5089552;28;20776;-62
2022/05/04 04:57:48;;;;;;;1.10;0.80;;;;;;;21.90;46.48;99222.97;5089334;28;20051;-62
2022/05/04 05:00:14;;;;;;;1.00;0.70;;;;;;;21.90;46.81;99231.31;5089474;28;20468;-61
2022/05/04 05:02:40;;;;;;;1.27;0.95;;;;;;;21.89;46.74;99229.72;5089420;28;20051;-62
2022/05/04 05:05:09;;;;;;;1.17;0.80;;;;;;;21.89;46.58;99229.72;5089353;28;20051;-61
2022/05/04 05:07:36;;;;;;;1.05;0.80;;;;;;;21.88;46.55;99239.28;5089266;28;20070;-62
2022/05/04 05:10:01;;;;;;;1.38;0.80;;;;;;;21.87;46.83;99229.31;5089206;28;20094;-62
2022/05/04 05:12:27;;;;;;;1.00;0.80;;;;;;;21.88;46.70;99234.50;5089195;28;20044;-65
2022/05/04 05:17:36;;;;;;;1.00;0.80;;;;;;;21.87;46.88;99248.81;5092642;28;20154;-64
2022/05/04 05:20:03;;;;;;;1.33;0.95;;;;;;;21.86;47.09;99242.44;5092720;28;20095;-62
2022/05/04 05:22:29;;;;;;;1.10;0.80;;;;;;;21.85;47.05;99243.63;5092852;28;20143;-63
2022/05/04 05:24:54;;;;;;;1.45;0.95;;;;;;;21.83;47.06;99237.63;5092449;28;20498;-62
2022/05/04 05:27:22;;;;;;;3.30;0.90;;;;;;;21.83;47.48;99246.00;5092517;28;20603;-62
2022/05/04 05:29:47;;;;;;;2.38;0.90;;;;;;;21.82;47.47;99249.16;5092619;28;20032;-62
2022/05/04 05:32:13;;;;;;;3.63;1.00;;;;;;;21.83;47.69;99245.19;5092550;28;20199;-62
2022/05/04 05:34:38;;;;;;;1.38;0.90;;;;;;;21.84;47.50;99249.56;5092634;28;20460;-62
2022/05/04 05:37:04;;;;;;;6.03;0.95;;;;;;;21.87;47.65;99254.38;5092560;28;20052;-66
2022/05/04 05:39:30;;;;;;;1.80;1.00;;;;;;;21.86;47.75;99247.19;5092385;28;20048;-65
2022/05/04 05:41:55;;;;;;;3.60;1.10;;;;;;;21.84;47.57;99246.78;5092425;28;20048;-66
2022/05/04 05:44:20;;;;;;;1.30;0.80;;;;;;;21.85;47.50;99251.16;5092331;28;20039;-62
2022/05/04 05:46:46;;;;;;;1.25;0.90;;;;;;;21.84;47.63;99247.59;5092288;28;20063;-62
2022/05/04 05:49:11;;;;;;;1.63;0.93;;;;;;;21.84;47.56;99247.59;5092358;28;20495;-65
2022/05/04 05:51:36;;;;;;;1.27;0.90;;;;;;;21.83;47.64;99251.56;5092374;28;20048;-61
2022/05/04 05:54:02;;;;;;;2.00;1.00;;;;;;;21.85;47.82;99246.41;5092319;28;20131;-61
2022/05/04 05:56:28;;;;;;;1.10;0.73;;;;;;;21.84;47.69;99247.59;5092214;28;20459;-62
2022/05/04 05:58:53;;;;;;;2.03;1.00;;;;;;;21.84;48.12;99239.22;5091901;28;20605;-62
2022/05/04 06:01:19;;;;;;;1.40;0.80;;;;;;;21.84;48.16;99244.81;5092318;28;20044;-65
2022/05/04 06:03:44;;;;;;;1.55;1.00;;;;;;;21.85;48.08;99240.81;5092135;28;20468;-65
2022/05/04 06:06:10;;;;;;;1.33;0.90;;;;;;;21.83;47.87;99243.22;5092136;28;20063;-61
2022/05/04 06:08:35;;;;;;;2.00;1.00;;;;;;;21.84;47.67;99238.44;5092011;28;20044;-62
2022/05/04 06:11:01;;;;;;;1.77;1.02;;;;;;;21.84;47.81;99230.88;5092167;28;20412;-61
2022/05/04 06:13:27;;;;;;;1.83;1.10;;;;;;;21.84;47.95;99239.22;5092036;28;20097;-62
2022/05/04 06:15:52;;;;;;;3.20;0.95;;;;;;;21.85;47.75;99232.47;5091900;28;20435;-65
2022/05/04 06:18:18;;;;;;;1.92;1.13;;;;;;;21.86;47.96;99248.03;5091582;28;20127;-62
2022/05/04 06:20:43;;;;;;;2.40;1.10;;;;;;;21.86;47.97;99241.63;5091729;28;20048;-62
2022/05/04 06:23:09;;;;;;;1.48;0.90;;;;;;;21.86;48.04;99242.44;5091845;28;20111;-62
2022/05/04 06:25:36;;;;;;;1.50;0.98;;;;;;;21.87;47.96;99237.69;5091803;28;20492;-65
2022/05/04 06:28:02;;;;;;;1.55;1.05;;;;;;;21.88;47.92;99245.63;5090577;28;20051;-65
2022/05/04 06:35:55;;;;;;;1.58;1.00;;;;;;;22.28;46.36;99252.28;5111392;28;20081;-65
2022/05/04 06:38:21;;;;;;;1.50;0.90;;;;;;;22.38;46.33;99242.44;5110847;28;20555;-65
2022/05/04 06:40:46;;;;;;;1.63;0.90;;;;;;;22.44;45.96;99244.44;5111344;28;20036;-65
2022/05/04 06:43:12;;;;;;;1.20;0.77;;;;;;;22.50;45.71;99239.28;5111093;28;20047;-65
2022/05/04 06:45:37;;;;;;;1.63;1.08;;;;;;;22.55;45.65;99244.50;5111317;28;20044;-65
2022/05/04 06:48:04;;;;;;;1.10;0.73;;;;;;;22.57;45.65;99246.88;5110797;28;20566;-65
2022/05/04 06:50:30;;;;;;;1.70;0.90;;;;;;;22.59;45.59;99250.91;5111336;28;20415;-65
2022/05/04 06:52:55;;;;;;;1.70;1.00;;;;;;;22.61;45.69;99242.94;5111316;28;20065;-65
2022/05/04 06:55:20;;;;;;;1.30;0.90;;;;;;;22.65;45.40;99242.97;5105586;28;20032;-65
2022/05/04 06:57:46;;;;;;;2.20;1.15;;;;;;;22.64;45.58;99252.50;5090470;28;20073;-62
2022/05/04 07:00:12;;;;;;;2.53;0.95;;;;;;;22.64;45.81;99252.50;5108361;28;20060;-66
2022/05/04 07:02:37;;;;;;;2.15;1.00;;;;;;;22.62;46.24;99249.31;5107595;28;20497;-64
2022/05/04 07:05:04;;;;;;;3.08;1.10;;;;;;;22.66;45.94;99250.94;5081972;28;20086;-62
2022/05/04 07:07:30;;;;;;;3.10;1.10;;;;;;;22.69;46.02;99255.72;5086959;28;20044;-63
2022/05/04 07:09:56;;;;;;;3.60;1.20;;;;;;;22.60;46.48;99257.28;5083787;28;20047;-62
2022/05/04 07:12:22;;;;;;;1.23;0.98;;;;;;;22.60;46.31;99260.84;5098318;28;20126;-66
2022/05/04 07:14:47;;;;;;;1.30;0.90;;;;;;;22.57;46.43;99260.81;5092575;28;20479;-65
2022/05/04 07:17:13;;;;;;;3.97;1.20;;;;;;;22.51;46.77;99261.22;5084479;28;20063;-65
2022/05/04 07:19:38;;;;;;;2.88;1.80;;;;;;;22.42;46.86;99266.31;5098802;28;20066;-64
2022/05/04 07:22:04;;;;;;;6.40;4.55;;;;;;;22.42;46.75;99259.94;5102104;28;20071;-62
2022/05/04 07:24:30;;;;;;;10.05;6.53;;;;;;;22.36;47.14;99267.06;5099423;28;20051;-61
2022/05/04 07:26:55;;;;;;;9.90;5.95;;;;;;;22.27;47.02;99261.84;5094880;28;20035;-60
2022/05/04 07:29:22;;;;;;;5.95;4.75;;;;;;;22.24;47.24;99265.44;5091654;28;20035;-66
2022/05/04 07:31:47;;;;;;;4.40;3.03;;;;;;;22.21;47.61;99266.19;5093015;28;20043;-68
2022/05/04 07:34:17;;;;;;;4.30;2.90;;;;;;;22.22;47.29;99262.22;5089038;28;20043;-66
2022/05/04 07:36:44;;;;;;;3.55;2.58;;;;;;;22.22;47.27;99265.81;5094250;28;20044;-65
2022/05/04 07:42:21;;;;;;;4.00;2.28;;;;;;;22.21;47.36;99258.63;5076550;28;20715;-66
2022/05/04 07:44:40;;;;;;;2.55;1.95;;;;;;;22.23;47.31;99255.47;5096186;28;20494;-66
2022/05/04 07:47:06;;;;;;;3.47;1.90;;;;;;;22.25;47.33;99261.44;5089987;28;20051;-66
2022/05/04 07:49:31;;;;;;;2.50;1.63;;;;;;;22.27;47.19;99267.41;5101612;28;20047;-67
2022/05/04 07:51:56;;;;;;;2.65;1.70;;;;;;;22.25;47.13;99267.00;5090156;28;20124;-66
2022/05/04 07:54:22;;;;;;;2.15;1.55;;;;;;;22.23;46.97;99269.41;5088766;28;20506;-66
2022/05/04 07:56:47;;;;;;;2.63;1.58;;;;;;;22.27;46.62;99256.28;5108084;27;20039;-66
2022/05/04 07:59:12;;;;;;;2.72;1.80;;;;;;;22.29;46.75;99253.91;5099929;28;20040;-64
2022/05/04 08:04:22;;;;;;;4.47;1.70;;;;;;;22.25;46.48;99253.09;5110939;28;20559;-67
2022/05/04 08:06:48;;;;;;;2.45;1.60;;;;;;;22.22;46.36;99254.69;5100732;28;20039;-63
2022/05/04 08:09:13;;;;;;;2.15;1.50;;;;;;;22.16;46.43;99241.50;5100892;28;20170;-65
2022/05/04 08:11:39;;;;;;;2.22;1.35;;;;;;;22.16;46.79;99250.66;5106342;28;20081;-66
2022/05/04 08:14:04;;;;;;;3.60;1.30;;;;;;;22.16;46.64;99250.66;5096880;28;20512;-66
2022/05/04 08:16:29;;;;;;;3.55;1.35;;;;;;;22.16;46.54;99252.63;5103970;28;20131;-63
2022/05/04 08:18:55;;;;;;;2.13;1.25;;;;;;;22.16;46.74;99250.66;5112578;28;20035;-63
2022/05/04 08:21:20;;;;;;;1.85;1.10;;;;;;;22.18;46.62;99253.03;5106416;28;20085;-64
2022/05/04 08:23:45;;;;;;;2.13;1.20;;;;;;;22.19;46.79;99254.63;5095973;28;20047;-65
2022/05/04 08:26:12;;;;;;;2.42;1.25;;;;;;;22.23;46.71;99256.28;5095302;28;20046;-67
2022/05/04 08:28:38;;;;;;;3.25;1.20;;;;;;;22.28;46.25;99245.94;5100201;28;20506;-69
2022/05/04 08:31:05;;;;;;;1.65;1.00;;;;;;;22.28;46.29;99241.16;5091423;28;20078;-66
2022/05/04 08:33:31;;;;;;;1.95;1.13;;;;;;;22.27;46.07;99245.13;5099647;28;20044;-63
2022/05/04 08:35:56;;;;;;;4.35;1.35;;;;;;;22.30;46.26;99243.56;5090836;28;20036;-64
2022/05/04 08:38:22;;;;;;;2.97;1.17;;;;;;;22.31;46.02;99240.38;5085972;28;20733;-65
2022/05/04 08:40:51;;;;;;;1.70;1.00;;;;;;;22.30;45.83;99238.81;5097171;28;20043;-66
2022/05/04 08:43:18;;;;;;;2.17;1.00;;;;;;;22.28;45.37;99234.78;5093406;28;20087;-66
2022/05/04 08:45:48;;;;;;;2.67;1.17;;;;;;;22.26;45.31;99232.41;5093129;28;20043;-66
2022/05/04 08:48:15;;;;;;;2.83;0.95;;;;;;;22.27;45.32;99233.97;5095626;28;20105;-67
2022/05/04 08:50:40;;;;;;;3.13;0.90;;;;;;;22.27;45.41;99233.97;5092067;28;20036;-63
2022/05/04 08:53:07;;;;;;;1.83;1.10;;;;;;;22.30;45.31;99229.66;5081208;28;20396;-62
2022/05/04 08:55:35;;;;;;;1.40;0.90;;;;;;;22.30;44.92;99221.28;5091951;28;20823;-62
2022/05/04 08:58:01;;;;;;;2.55;1.13;;;;;;;22.32;45.26;99219.69;5093725;28;20047;-63
2022/05/04 09:00:26;;;;;;;2.47;0.90;;;;;;;22.58;45.02;99224.22;5088159;28;20047;-63
2022/05/04 09:02:52;;;;;;;1.38;0.80;;;;;;;22.73;44.96;99219.50;5098642;28;20142;-62
2022/05/04 09:05:27;;;;;;;2.55;0.93;;;;;;;22.72;44.51;99224.28;5092923;28;20605;-63
2022/05/04 09:07:56;;;;;;;1.92;1.00;;;;;;;22.68;44.65;99211.50;5090811;28;20060;-64
2022/05/04 09:10:34;;;;;;;3.15;1.00;;;;;;;22.62;44.67;99210.28;5087433;28;20050;-64
2022/05/04 09:13:00;;;;;;;3.63;1.05;;;;;;;22.58;44.80;99209.47;5095859;28;20059;-63
2022/05/04 09:15:27;;;;;;;1.20;0.88;;;;;;;22.57;44.83;99213.44;5089980;27;20516;-63
2022/05/04 09:17:56;;;;;;;1.67;0.93;;;;;;;22.55;45.02;99211.03;5083692;28;20048;-65
2022/05/04 09:20:45;;;;;;;1.75;1.00;;;;;;;22.57;45.32;99207.84;5085718;28;20507;-62
2022/05/04 09:23:28;;;;;;;2.70;1.00;;;;;;;22.60;45.06;99207.88;5075590;28;20037;-61
2022/05/04 09:25:57;;;;;;;;;;;;;;;22.62;44.80;99193.56;5088517;28;20429;-62
2022/05/04 09:28:26;;;;;;;1.83;1.00;;;;;;;22.60;45.00;99193.94;5089079;28;19924;-62
2022/05/04 09:30:58;;;;;;;3.30;0.70;;;;;;;22.61;44.93;99191.97;5087166;28;20044;-63
2022/05/04 09:33:28;;;;;;;1.52;1.00;;;;;;;22.60;44.95;99202.31;5090552;28;20726;-63
2022/05/04 09:35:58;;;;;;;2.15;0.90;;;;;;;22.60;44.46;99188.38;5082013;28;20055;-64
2022/05/04 09:46:48;;;;;;;2.05;0.85;;;;;;;22.71;44.71;99191.19;5084149;28;20051;-58
2022/05/04 09:49:27;;;;;;;1.42;0.80;;;;;;;22.75;44.57;99184.44;5097745;28;20558;-64
2022/05/04 09:51:54;;;;;;;4.05;0.80;;;;;;;22.78;44.44;99174.47;5071004;28;21265;-62
2022/05/04 09:54:22;;;;;;;1.98;0.90;;;;;;;22.87;44.43;99176.94;5086130;28;20150;-68
2022/05/04 09:56:52;;;;;;;2.85;0.90;;;;;;;22.91;44.34;99180.53;5074667;28;20138;-63
2022/05/04 09:59:20;;;;;;;3.10;0.90;;;;;;;22.93;44.37;99175.34;5080540;28;20056;-70
2022/05/04 10:01:47;;;;;;;1.45;0.85;;;;;;;22.93;44.68;99175.34;5085545;28;20082;-67
2022/05/04 10:04:13;;;;;;;2.50;1.00;;;;;;;22.95;44.27;99170.97;5093700;28;20044;-64
2022/05/04 10:06:40;;;;;;;1.65;0.85;;;;;;;22.98;44.22;99172.97;5085623;28;20055;-73
2022/05/04 10:09:07;;;;;;;3.95;1.00;;;;;;;23.45;43.57;99165.47;5091330;28;20062;-69
2022/05/04 10:11:34;;;;;;;2.38;0.73;;;;;;;23.67;42.52;99159.91;5090960;28;20126;-70
2022/05/04 10:14:09;;;;;;;1.33;0.80;;;;;;;23.45;43.26;99157.09;5079949;28;20040;-65
2022/05/04 10:16:43;;;;;;;2.40;0.70;;;;;;;23.35;43.11;99152.28;5089119;28;20048;-66
2022/05/04 10:19:17;;;;;;;1.50;0.80;;;;;;;23.54;43.06;99168.63;5084337;28;20047;-67
2022/05/04 10:21:45;;;;;;;1.42;0.90;;;;;;;23.54;42.43;99159.47;5074586;28;20127;-60
2022/05/04 10:24:11;;;;;;;4.45;0.80;;;;;;;23.48;42.62;99156.28;5092691;28;20512;-61
2022/05/04 10:26:38;;;;;;;1.42;0.60;;;;;;;23.43;42.80;99161.44;5087854;28;20043;-62
2022/05/04 10:32:37;;;;;;;1.73;0.90;;;;;;;23.44;41.63;99155.50;5107728;28;20078;-62
2022/05/04 10:35:22;;;;;;;1.85;0.95;;;;;;;23.43;41.26;99153.09;5096426;28;20127;-62
2022/05/04 10:38:04;;;;;;;1.75;0.95;;;;;;;23.43;40.74;99142.75;5081788;28;20056;-63
2022/05/04 10:40:54;;;;;;;1.17;0.70;;;;;;;23.44;40.75;99133.16;5093346;28;20092;-63
2022/05/04 10:43:45;;;;;;;2.15;1.17;;;;;;;23.47;40.46;99143.50;5098852;28;20046;-63
2022/05/04 10:46:22;;;;;;;1.80;1.00;;;;;;;23.45;40.42;99133.97;5095340;28;20039;-63
2022/05/04 10:48:55;;;;;;;1.52;0.93;;;;;;;23.47;40.42;99131.56;5102521;28;20034;-63
2022/05/04 10:51:22;;;;;;;1.27;0.77;;;;;;;23.47;40.40;99129.56;5102884;28;20118;-63
2022/05/04 10:53:47;;;;;;;1.27;0.82;;;;;;;23.52;40.54;99122.78;5097941;28;20044;-63
2022/05/04 10:56:15;;;;;;;2.60;1.67;;;;;;;23.51;40.55;99119.19;5105128;28;20044;-63
2022/05/04 10:58:50;;;;;;;3.08;2.08;;;;;;;23.49;40.67;99115.19;5100338;28;20048;-63
2022/05/04 11:01:26;;;;;;;3.22;1.80;;;;;;;23.48;40.99;99117.19;5096245;28;20508;-63
2022/05/04 11:04:09;;;;;;;2.38;1.20;;;;;;;23.47;41.42;99107.22;5096924;28;20039;-63
2022/05/04 11:06:57;;;;;;;2.05;1.35;;;;;;;23.47;41.13;99101.66;5107413;28;20048;-63
2022/05/04 11:09:25;;;;;;;1.95;1.30;;;;;;;23.47;41.19;99096.06;5098077;28;20573;-63
2022/05/04 11:11:55;;;;;;;2.28;1.05;;;;;;;23.48;41.22;99099.66;5104276;28;20044;-63
2022/05/04 11:14:22;;;;;;;2.20;1.00;;;;;;;23.46;41.50;99100.06;5097502;28;20043;-63
2022/05/04 11:16:49;;;;;;;1.60;1.00;;;;;;;23.48;41.22;99097.66;5095611;28;20047;-59
2022/05/04 11:19:15;;;;;;;1.48;1.08;;;;;;;23.47;40.85;99095.25;5105409;28;20131;-59
2022/05/04 11:21:41;;;;;;;2.33;1.20;;;;;;;23.46;40.91;99093.69;5101132;28;20192;-59
2022/05/04 11:24:11;;;;;;;2.22;1.00;;;;;;;23.47;40.81;99096.06;5099634;28;20063;-59
2022/05/04 11:26:37;;;;;;;1.98;1.02;;;;;;;23.50;40.91;99086.06;5097293;28;20039;-59
2022/05/04 11:29:10;;;;;;;2.00;0.98;;;;;;;23.48;40.74;99077.31;5096243;28;20130;-59
2022/05/04 11:31:36;;;;;;;1.35;0.90;;;;;;;23.46;41.04;99086.09;5089662;28;20046;-61
2022/05/04 11:34:03;;;;;;;1.80;0.93;;;;;;;23.47;41.21;99086.91;5100817;28;20043;-61
2022/05/04 11:36:28;;;;;;;3.15;0.90;;;;;;;23.46;41.48;99086.09;5091819;28;20419;-58
2022/05/04 11:38:54;;;;;;;2.20;1.10;;;;;;;23.48;41.37;99094.84;5107811;28;20498;-57
2022/05/04 11:41:20;;;;;;;1.33;0.85;;;;;;;23.53;40.94;99088.88;5101083;28;20051;-58
2022/05/04 11:43:49;;;;;;;2.22;0.90;;;;;;;23.52;40.89;99084.50;5105120;28;20063;-58
2022/05/04 11:46:15;;;;;;;1.98;0.98;;;;;;;23.52;40.86;99078.91;5097411;28;20035;-57
2022/05/04 11:48:43;;;;;;;4.35;1.00;;;;;;;23.53;40.93;99079.72;5101178;28;20044;-57
2022/05/04 11:51:15;;;;;;;2.08;1.02;;;;;;;23.50;40.84;99080.50;5111637;28;20127;-58
2022/05/04 11:53:41;;;;;;;2.78;1.10;;;;;;;23.49;40.59;99074.13;5100324;28;20032;-57
2022/05/04 11:56:08;;;;;;;1.75;1.05;;;;;;;23.51;40.91;99071.75;5089722;28;20047;-58
2022/05/04 11:58:37;;;;;;;2.55;1.00;;;;;;;23.50;40.86;99067.34;5097338;28;20071;-63
2022/05/04 12:01:06;;;;;;;3.05;0.98;;;;;;;23.51;40.72;99063.38;5084587;28;20066;-60
2022/05/04 12:03:35;;;;;;;1.70;1.00;;;;;;;23.64;40.33;99071.34;5093750;28;20036;-60
2022/05/04 12:06:03;;;;;;;2.70;1.40;;;;;;;23.63;40.39;99069.75;5091003;28;20047;-59